Time;durP1;ratioP1;P1;durP2;ratioP2;P2;SDS_P1;SDS_P2;PMS_P1;PMS_P2;Temp;Humidity;BMP_temperature;BMP_pressure;BME280_temperature;BME280_humidity;BME280_pressure;Samples;Min_cycle;Max_cycle;Signal;HPM_P1;HPM_P2
2021/05/17 00:00:52;;;;;;;1.97;1.77;;;10.00;99.90;;;;;;471077;249;28008;-74
2021/05/17 00:02:53;;;;;;;3.00;1.93;;;10.00;99.90;;;;;;471083;249;28023;-73
2021/05/17 00:04:54;;;;;;;2.37;1.60;;;10.00;99.90;;;;;;471070;249;27661;-73
2021/05/17 00:06:56;;;;;;;2.20;1.50;;;10.00;99.90;;;;;;471066;249;28024;-74
2021/05/17 00:08:57;;;;;;;2.53;1.97;;;10.00;99.90;;;;;;471110;246;27889;-73
2021/05/17 00:10:58;;;;;;;5.43;3.07;;;10.10;99.90;;;;;;471070;249;27986;-73
2021/05/17 00:12:59;;;;;;;3.07;2.80;;;10.00;99.90;;;;;;471070;249;28003;-73
2021/05/17 00:15:01;;;;;;;3.70;2.83;;;10.00;99.90;;;;;;471089;249;28115;-73
2021/05/17 00:17:02;;;;;;;4.13;2.20;;;9.90;99.90;;;;;;471086;249;28213;-73
2021/05/17 00:19:03;;;;;;;2.10;2.00;;;10.00;99.90;;;;;;471051;249;28449;-73
2021/05/17 00:21:04;;;;;;;3.43;2.33;;;10.00;99.90;;;;;;471097;249;28570;-73
2021/05/17 00:23:06;;;;;;;2.30;2.10;;;10.00;99.90;;;;;;471085;249;30069;-73
2021/05/17 00:25:07;;;;;;;3.63;2.30;;;10.00;99.90;;;;;;471077;249;28167;-73
2021/05/17 00:27:08;;;;;;;3.50;2.07;;;10.00;99.90;;;;;;471068;249;28014;-74
2021/05/17 00:29:09;;;;;;;4.93;2.17;;;10.00;99.90;;;;;;471058;249;28025;-73
2021/05/17 00:31:11;;;;;;;6.73;2.90;;;10.00;99.90;;;;;;471064;249;28078;-73
2021/05/17 00:33:12;;;;;;;5.33;2.20;;;10.00;99.90;;;;;;471083;249;28071;-73
2021/05/17 00:35:13;;;;;;;2.30;2.00;;;10.00;99.90;;;;;;471092;249;27781;-73
2021/05/17 00:37:14;;;;;;;8.10;2.47;;;10.00;99.90;;;;;;471073;249;28238;-74
2021/05/17 00:39:16;;;;;;;8.20;2.13;;;10.00;99.90;;;;;;471065;249;27637;-73
2021/05/17 00:41:17;;;;;;;5.87;2.33;;;9.90;99.90;;;;;;471065;249;28024;-74
2021/05/17 00:43:18;;;;;;;2.93;2.00;;;9.90;99.90;;;;;;471056;252;28021;-73
2021/05/17 00:45:19;;;;;;;4.37;2.43;;;9.90;99.90;;;;;;471068;249;28490;-73
2021/05/17 00:47:21;;;;;;;5.30;2.20;;;9.90;99.90;;;;;;471059;249;28603;-73
2021/05/17 00:49:22;;;;;;;6.83;2.23;;;9.90;99.90;;;;;;471062;249;28634;-73
2021/05/17 00:51:23;;;;;;;4.97;2.50;;;9.90;99.90;;;;;;471062;249;28512;-73
2021/05/17 00:53:24;;;;;;;2.93;1.70;;;9.90;99.90;;;;;;471090;249;28506;-73
2021/05/17 00:55:26;;;;;;;4.30;2.10;;;9.90;99.90;;;;;;471083;249;27882;-74
2021/05/17 00:57:27;;;;;;;6.50;2.03;;;9.90;99.90;;;;;;471105;249;27870;-74
2021/05/17 00:59:28;;;;;;;3.90;1.90;;;9.90;99.90;;;;;;471115;249;27987;-74
2021/05/17 01:01:29;;;;;;;3.40;1.93;;;9.90;99.90;;;;;;471056;249;28041;-73
2021/05/17 01:03:31;;;;;;;3.77;2.30;;;9.90;99.90;;;;;;471125;249;28025;-73
2021/05/17 01:05:32;;;;;;;6.10;2.43;;;9.90;99.90;;;;;;471118;249;27919;-73
2021/05/17 01:07:33;;;;;;;5.83;2.40;;;9.90;99.90;;;;;;471104;249;28013;-74
2021/05/17 01:09:34;;;;;;;3.33;2.20;;;9.80;99.90;;;;;;471058;249;27833;-73
2021/05/17 01:11:36;;;;;;;5.20;1.70;;;9.80;99.90;;;;;;471053;249;27981;-74
2021/05/17 01:13:37;;;;;;;3.50;1.83;;;9.70;99.90;;;;;;471062;249;28131;-73
2021/05/17 01:15:38;;;;;;;3.80;1.90;;;9.80;99.90;;;;;;471115;249;27989;-73
2021/05/17 01:17:39;;;;;;;6.33;2.47;;;9.80;99.90;;;;;;471097;249;27881;-73
2021/05/17 01:19:41;;;;;;;5.30;1.93;;;9.70;99.90;;;;;;471095;249;27860;-73
2021/05/17 01:21:42;;;;;;;3.63;1.80;;;9.80;99.90;;;;;;471082;249;28415;-73
2021/05/17 01:23:49;;;;;;;3.53;2.03;;;9.80;99.90;;;;;;471058;249;28399;-73
2021/05/17 01:25:44;;;;;;;3.40;1.90;;;9.80;99.90;;;;;;470432;252;28576;-73
2021/05/17 01:27:46;;;;;;;1.70;1.60;;;9.80;99.90;;;;;;471075;249;28444;-73
2021/05/17 01:29:47;;;;;;;2.20;1.73;;;9.70;99.90;;;;;;471066;249;28290;-73
2021/05/17 01:31:48;;;;;;;4.20;2.27;;;9.70;99.90;;;;;;471077;249;28385;-73
2021/05/17 01:33:49;;;;;;;3.03;1.90;;;9.60;99.90;;;;;;471057;249;28181;-74
2021/05/17 01:35:51;;;;;;;2.53;2.03;;;9.60;99.90;;;;;;471085;249;28021;-73
2021/05/17 01:37:52;;;;;;;3.77;2.20;;;9.60;99.90;;;;;;471044;252;28025;-73
2021/05/17 01:39:53;;;;;;;2.37;1.80;;;9.60;99.90;;;;;;471055;249;28002;-73
2021/05/17 01:41:54;;;;;;;2.90;2.30;;;9.60;99.90;;;;;;471104;249;28020;-76
2021/05/17 01:43:56;;;;;;;5.07;2.50;;;9.70;99.90;;;;;;471085;249;28023;-73
2021/05/17 01:45:57;;;;;;;4.47;2.60;;;9.60;99.90;;;;;;471042;249;27907;-73
2021/05/17 01:47:58;;;;;;;2.80;2.50;;;9.60;99.90;;;;;;471065;249;28014;-73
2021/05/17 01:49:59;;;;;;;4.37;2.80;;;9.60;99.90;;;;;;471070;249;27892;-74
2021/05/17 01:52:01;;;;;;;3.00;2.40;;;9.60;99.90;;;;;;471065;249;28017;-74
2021/05/17 01:54:02;;;;;;;4.50;2.93;;;9.60;99.90;;;;;;471064;249;28128;-73
2021/05/17 01:56:03;;;;;;;3.80;3.30;;;9.60;99.90;;;;;;471054;249;28070;-73
2021/05/17 01:58:04;;;;;;;4.80;2.90;;;9.60;99.90;;;;;;471060;249;27786;-73
2021/05/17 02:00:06;;;;;;;3.00;2.63;;;9.60;99.90;;;;;;471049;249;28009;-74
2021/05/17 02:02:07;;;;;;;2.70;2.50;;;9.50;99.90;;;;;;471052;249;28337;-74
2021/05/17 02:04:08;;;;;;;3.93;2.90;;;9.60;99.90;;;;;;471056;249;28495;-73
2021/05/17 02:06:09;;;;;;;3.60;2.63;;;9.60;99.90;;;;;;471081;249;28507;-74
2021/05/17 02:08:12;;;;;;;2.60;2.40;;;9.50;99.90;;;;;;471062;252;28592;-73
2021/05/17 02:10:12;;;;;;;6.67;2.83;;;9.60;99.90;;;;;;471031;252;28535;-73
2021/05/17 02:12:13;;;;;;;4.20;3.10;;;9.50;99.90;;;;;;471090;249;28009;-74
2021/05/17 02:14:14;;;;;;;3.77;2.53;;;9.60;99.90;;;;;;471055;249;28020;-73
2021/05/17 02:16:16;;;;;;;5.47;2.83;;;9.50;99.90;;;;;;471060;249;27673;-74
2021/05/17 02:18:17;;;;;;;2.50;2.00;;;9.50;99.90;;;;;;471067;249;27859;-73
2021/05/17 02:20:18;;;;;;;3.00;2.07;;;9.60;99.90;;;;;;471054;249;28149;-74
2021/05/17 02:22:19;;;;;;;2.10;2.00;;;9.50;99.90;;;;;;471073;249;27993;-74
2021/05/17 02:24:20;;;;;;;3.73;2.50;;;9.50;99.90;;;;;;471075;249;28077;-73
2021/05/17 02:26:22;;;;;;;1.97;1.80;;;9.50;99.90;;;;;;471088;249;27646;-74
2021/05/17 02:28:23;;;;;;;2.83;2.10;;;9.50;99.90;;;;;;471046;249;28101;-74
2021/05/17 02:30:24;;;;;;;4.70;2.23;;;9.50;99.90;;;;;;471117;249;27922;-73
2021/05/17 02:32:25;;;;;;;5.93;1.80;;;9.40;99.90;;;;;;471100;249;27674;-75
2021/05/17 02:34:27;;;;;;;5.20;2.00;;;9.50;99.90;;;;;;471119;249;27907;-74
2021/05/17 02:36:28;;;;;;;4.03;2.37;;;9.50;99.90;;;;;;471098;249;28111;-74
2021/05/17 02:38:29;;;;;;;3.23;1.80;;;9.50;99.90;;;;;;471093;249;28366;-74
2021/05/17 02:40:30;;;;;;;4.10;1.60;;;9.40;99.90;;;;;;471110;249;28270;-74
2021/05/17 02:42:32;;;;;;;3.80;1.90;;;9.50;99.90;;;;;;471113;249;28291;-73
2021/05/17 02:44:33;;;;;;;1.87;1.77;;;9.40;99.90;;;;;;471121;249;28640;-73
2021/05/17 02:46:34;;;;;;;2.53;1.67;;;9.40;99.90;;;;;;471062;249;28277;-74
2021/05/17 02:48:40;;;;;;;3.53;1.67;;;9.40;99.90;;;;;;471066;249;27531;-73
2021/05/17 02:50:37;;;;;;;1.77;1.67;;;9.40;99.90;;;;;;470676;252;28044;-74
2021/05/17 02:52:38;;;;;;;9.27;2.10;;;9.50;99.90;;;;;;471104;249;28016;-73
2021/05/17 02:54:39;;;;;;;1.40;1.30;;;9.50;99.90;;;;;;471092;249;27998;-74
2021/05/17 02:56:40;;;;;;;2.07;1.80;;;9.50;99.90;;;;;;471055;249;28066;-73
2021/05/17 02:58:42;;;;;;;3.53;1.70;;;9.40;99.90;;;;;;471063;249;28208;-74
2021/05/17 03:00:43;;;;;;;1.63;1.50;;;9.50;99.90;;;;;;471052;246;27850;-73
2021/05/17 03:02:44;;;;;;;2.80;1.90;;;9.50;99.90;;;;;;471064;249;28011;-73
2021/05/17 03:04:45;;;;;;;2.00;1.60;;;9.50;99.90;;;;;;471053;249;27639;-74
2021/05/17 03:06:47;;;;;;;3.83;1.57;;;9.50;99.90;;;;;;471055;249;27775;-74
2021/05/17 03:08:48;;;;;;;1.70;1.60;;;9.50;99.90;;;;;;471093;249;27856;-73
2021/05/17 03:10:49;;;;;;;4.60;1.73;;;9.50;99.90;;;;;;471090;249;28127;-74
2021/05/17 03:12:51;;;;;;;2.33;1.70;;;9.40;99.90;;;;;;471132;249;27993;-73
2021/05/17 03:14:52;;;;;;;2.53;1.70;;;9.40;99.90;;;;;;471097;249;28093;-73
2021/05/17 03:16:53;;;;;;;1.93;1.60;;;9.40;99.90;;;;;;471139;249;28534;-75
2021/05/17 03:18:54;;;;;;;1.80;1.70;;;9.40;99.90;;;;;;471084;249;28529;-73
2021/05/17 03:20:55;;;;;;;4.03;1.87;;;9.40;99.90;;;;;;471096;249;28362;-74
2021/05/17 03:22:57;;;;;;;1.60;1.50;;;9.40;99.90;;;;;;471125;249;28227;-73
2021/05/17 03:24:58;;;;;;;3.53;2.10;;;9.40;99.90;;;;;;471120;249;28142;-73
2021/05/17 03:26:59;;;;;;;3.00;1.70;;;9.40;99.90;;;;;;471076;249;28069;-74
2021/05/17 03:29:00;;;;;;;2.40;1.70;;;9.40;99.90;;;;;;471010;252;27795;-74
2021/05/17 03:31:02;;;;;;;4.10;1.80;;;9.40;99.90;;;;;;471048;249;28115;-73
2021/05/17 03:33:03;;;;;;;1.90;1.53;;;9.40;99.90;;;;;;471046;249;28092;-73
2021/05/17 03:35:04;;;;;;;2.87;2.00;;;9.40;99.90;;;;;;471066;249;28040;-74
2021/05/17 03:37:05;;;;;;;2.50;1.60;;;9.40;99.90;;;;;;471118;249;28112;-75
2021/05/17 03:39:07;;;;;;;7.53;1.60;;;9.40;99.90;;;;;;471040;249;28038;-73
2021/05/17 03:41:08;;;;;;;3.67;2.00;;;9.50;99.90;;;;;;471048;249;27923;-74
2021/05/17 03:43:09;;;;;;;3.30;2.00;;;9.40;99.90;;;;;;471077;252;28024;-73
2021/05/17 03:45:10;;;;;;;3.07;1.40;;;9.40;99.90;;;;;;471078;249;27525;-74
2021/05/17 03:47:12;;;;;;;3.50;1.70;;;9.40;99.90;;;;;;471115;249;28007;-73
2021/05/17 03:49:13;;;;;;;2.10;1.90;;;9.40;99.90;;;;;;471090;249;28007;-74
2021/05/17 03:51:14;;;;;;;4.10;2.10;;;9.50;99.90;;;;;;471060;249;28058;-74
2021/05/17 03:53:17;;;;;;;13.80;2.50;;;9.40;99.90;;;;;;471047;249;27912;-74
2021/05/17 03:55:17;;;;;;;2.60;1.83;;;9.40;99.90;;;;;;471021;249;28466;-74
2021/05/17 03:57:18;;;;;;;3.67;2.40;;;9.40;99.90;;;;;;471055;249;28517;-73
2021/05/17 03:59:19;;;;;;;2.00;1.50;;;9.40;99.90;;;;;;471027;252;28545;-74
2021/05/17 04:01:20;;;;;;;10.13;2.10;;;9.50;99.90;;;;;;471057;249;28487;-74
2021/05/17 04:03:22;;;;;;;3.80;2.23;;;9.50;99.90;;;;;;471127;249;27999;-74
2021/05/17 04:07:53;;;;;;;3.90;2.10;;;9.30;99.90;;;;;;456656;252;27917;-74
2021/05/17 04:14:13;;;;;;;2.73;2.30;;;9.30;99.90;;;;;;471053;252;28209;-73
2021/05/17 04:16:14;;;;;;;3.23;1.83;;;9.40;99.90;;;;;;471094;249;27885;-74
2021/05/17 04:18:20;;;;;;;6.17;2.50;;;9.40;99.90;;;;;;471068;249;28029;-74
2021/05/17 04:20:17;;;;;;;2.77;2.40;;;9.40;99.90;;;;;;470548;252;28009;-72
2021/05/17 04:22:18;;;;;;;3.13;2.20;;;9.40;99.90;;;;;;471090;249;28003;-74
2021/05/17 04:24:19;;;;;;;3.17;2.70;;;9.40;99.90;;;;;;471104;249;28048;-74
2021/05/17 04:26:20;;;;;;;3.00;2.60;;;9.40;99.90;;;;;;471103;249;27510;-74
2021/05/17 04:28:22;;;;;;;4.37;2.33;;;9.30;99.90;;;;;;471092;249;27896;-74
2021/05/17 04:30:23;;;;;;;3.93;2.70;;;9.30;99.90;;;;;;471102;249;27702;-73
2021/05/17 04:32:24;;;;;;;5.27;2.63;;;9.40;99.90;;;;;;471070;249;28118;-73
2021/05/17 04:34:25;;;;;;;3.30;2.50;;;9.40;99.90;;;;;;471077;249;28051;-74
2021/05/17 04:36:28;;;;;;;3.93;3.00;;;9.50;99.90;;;;;;471045;249;28508;-74
2021/05/17 04:38:28;;;;;;;5.67;2.67;;;9.50;99.90;;;;;;470970;252;28534;-73
2021/05/17 04:40:29;;;;;;;4.10;2.80;;;9.40;99.90;;;;;;471124;249;28761;-73
2021/05/17 04:42:30;;;;;;;2.97;2.40;;;9.40;99.90;;;;;;471092;249;28551;-74
2021/05/17 04:44:32;;;;;;;3.67;2.60;;;9.40;99.90;;;;;;471065;249;28593;-74
2021/05/17 04:46:33;;;;;;;2.50;2.30;;;9.40;99.90;;;;;;471069;249;28113;-74
2021/05/17 04:48:34;;;;;;;6.40;3.10;;;9.30;99.90;;;;;;471057;249;27643;-73
2021/05/17 04:50:35;;;;;;;5.63;2.90;;;9.30;99.90;;;;;;471050;249;28177;-74
2021/05/17 04:52:37;;;;;;;2.40;2.20;;;9.40;99.90;;;;;;471072;249;27854;-73
2021/05/17 04:54:38;;;;;;;3.73;2.37;;;9.40;99.90;;;;;;471064;249;28024;-74
2021/05/17 04:56:39;;;;;;;2.77;2.57;;;9.40;99.90;;;;;;471069;249;27998;-74
2021/05/17 04:58:40;;;;;;;4.20;2.87;;;9.40;99.90;;;;;;471047;249;27768;-73
2021/05/17 05:00:42;;;;;;;3.50;2.67;;;9.40;99.90;;;;;;471112;249;27900;-74
2021/05/17 05:02:43;;;;;;;1.93;1.67;;;9.50;99.90;;;;;;471141;249;28062;-74
2021/05/17 05:04:44;;;;;;;3.13;1.90;;;9.50;99.90;;;;;;471128;249;28145;-74
2021/05/17 05:06:45;;;;;;;2.53;2.33;;;9.50;99.90;;;;;;471115;249;27998;-73
2021/05/17 05:08:47;;;;;;;3.60;2.00;;;9.50;99.90;;;;;;471106;249;28014;-74
2021/05/17 05:10:48;;;;;;;2.37;2.10;;;9.50;99.90;;;;;;471058;249;27906;-73
2021/05/17 05:12:49;;;;;;;3.77;1.93;;;9.50;99.90;;;;;;471059;249;28023;-74
2021/05/17 05:14:50;;;;;;;2.60;2.10;;;9.40;99.90;;;;;;471058;249;28316;-74
2021/05/17 05:16:52;;;;;;;2.27;2.00;;;9.40;99.90;;;;;;471073;249;28459;-74
2021/05/17 05:18:53;;;;;;;2.53;2.10;;;9.40;99.90;;;;;;471083;249;28435;-74
2021/05/17 05:20:54;;;;;;;4.87;2.47;;;9.50;99.90;;;;;;471057;249;28492;-73
2021/05/17 05:22:55;;;;;;;7.37;2.20;;;9.60;99.90;;;;;;471053;249;28324;-74
2021/05/17 05:24:57;;;;;;;3.47;2.03;;;9.50;99.90;;;;;;471058;249;28106;-74
2021/05/17 05:27:14;;;;;;;2.90;2.10;;;9.60;99.90;;;;;;471108;249;27767;-73
2021/05/17 05:31:26;;;;;;;3.07;1.80;;;9.50;99.90;;;;;;471086;249;28128;-73
2021/05/17 05:33:20;;;;;;;3.20;2.10;;;9.50;99.90;;;;;;470195;252;28098;-73
2021/05/17 05:35:21;;;;;;;2.27;2.00;;;9.60;99.90;;;;;;471109;249;28099;-74
2021/05/17 05:37:22;;;;;;;5.80;2.57;;;9.60;99.90;;;;;;471129;249;28005;-73
2021/05/17 05:39:23;;;;;;;3.83;2.30;;;9.70;99.90;;;;;;471065;249;28113;-73
2021/05/17 05:41:25;;;;;;;2.73;2.23;;;9.70;99.90;;;;;;471067;249;27977;-73
2021/05/17 05:43:26;;;;;;;5.03;2.60;;;9.90;99.90;;;;;;471064;249;28591;-73
2021/05/17 05:45:28;;;;;;;3.93;2.30;;;9.80;99.90;;;;;;471071;249;28483;-74
2021/05/17 05:47:28;;;;;;;3.43;2.00;;;9.80;99.90;;;;;;471065;249;28467;-74
2021/05/17 05:49:30;;;;;;;6.43;2.40;;;9.80;99.90;;;;;;471078;249;28324;-73
2021/05/17 05:51:31;;;;;;;4.33;1.80;;;9.80;99.90;;;;;;471095;249;28489;-73
2021/05/17 05:53:32;;;;;;;3.70;2.23;;;9.80;99.90;;;;;;471104;249;28041;-73
2021/05/17 05:55:33;;;;;;;2.27;2.07;;;9.60;99.90;;;;;;471050;249;28156;-73
2021/05/17 05:57:44;;;;;;;4.03;1.97;;;9.60;99.90;;;;;;472046;249;28114;-73
2021/05/17 05:59:45;;;;;;;3.03;1.87;;;9.60;99.90;;;;;;475440;250;27856;-73
2021/05/17 06:01:46;;;;;;;4.23;2.40;;;9.60;99.90;;;;;;476258;250;27960;-73
2021/05/17 06:03:48;;;;;;;2.23;2.03;;;9.60;99.90;;;;;;476260;249;28105;-75
2021/05/17 06:05:49;;;;;;;4.83;1.93;;;9.60;99.90;;;;;;476263;249;28611;-73
2021/05/17 06:07:50;;;;;;;2.63;1.77;;;9.60;99.90;;;;;;476208;249;28425;-74
2021/05/17 06:09:51;;;;;;;1.80;1.70;;;9.70;99.90;;;;;;476211;249;28306;-73
2021/05/17 06:11:55;;;;;;;4.83;1.87;;;9.70;99.90;;;;;;476203;250;28547;-73
2021/05/17 06:13:54;;;;;;;4.50;1.70;;;9.70;99.90;;;;;;476073;249;28307;-73
2021/05/17 06:15:55;;;;;;;2.83;1.70;;;9.80;99.90;;;;;;476214;250;27996;-73
2021/05/17 06:17:56;;;;;;;4.30;1.90;;;9.70;99.90;;;;;;476214;249;28140;-73
2021/05/17 06:19:58;;;;;;;5.67;1.90;;;9.70;99.90;;;;;;479728;245;28157;-74
2021/05/17 06:21:59;;;;;;;4.30;1.87;;;9.70;99.90;;;;;;476344;246;28204;-73
2021/05/17 06:24:00;;;;;;;2.93;1.77;;;9.60;99.90;;;;;;476219;250;28542;-73
2021/05/17 06:26:01;;;;;;;1.70;1.60;;;9.70;99.90;;;;;;476698;249;28512;-73
2021/05/17 06:28:03;;;;;;;2.77;1.60;;;9.60;99.90;;;;;;479483;243;28427;-75
2021/05/17 06:30:04;;;;;;;4.67;1.60;;;9.70;99.90;;;;;;488218;243;28047;-73
2021/05/17 06:32:05;;;;;;;2.30;1.60;;;9.80;99.90;;;;;;488093;243;28403;-73
2021/05/17 06:34:06;;;;;;;2.77;1.93;;;9.80;99.90;;;;;;488293;243;27944;-73
2021/05/17 06:36:11;;;;;;;2.90;1.60;;;9.70;99.90;;;;;;488295;243;28056;-74
2021/05/17 06:38:09;;;;;;;1.87;1.67;;;9.60;99.90;;;;;;489921;242;27916;-74
2021/05/17 06:40:12;;;;;;;2.10;1.60;;;9.80;99.90;;;;;;491520;242;27843;-73
2021/05/17 06:42:11;;;;;;;4.30;1.97;;;9.80;99.90;;;;;;491458;242;27954;-73
2021/05/17 06:44:13;;;;;;;3.47;1.90;;;10.00;99.90;;;;;;491512;242;27970;-72
2021/05/17 06:46:14;;;;;;;2.30;1.53;;;10.00;99.90;;;;;;491507;242;27976;-73
2021/05/17 06:48:15;;;;;;;5.83;1.70;;;10.00;99.90;;;;;;491533;242;27846;-73
2021/05/17 06:50:16;;;;;;;1.90;1.53;;;10.10;99.90;;;;;;491486;242;28151;-73
2021/05/17 06:52:22;;;;;;;5.73;2.07;;;10.20;99.90;;;;;;483924;242;28265;-74
2021/05/17 06:54:23;;;;;;;2.20;1.70;;;10.10;99.90;;;;;;474892;246;28109;-73
2021/05/17 06:58:28;;;;;;;2.13;1.77;;;10.20;99.90;;;;;;475848;250;28249;-74
2021/05/17 07:00:32;;;;;;;4.60;2.10;;;10.30;99.90;;;;;;475703;250;28169;-73
2021/05/17 07:02:34;;;;;;;2.70;1.97;;;;;;;;;;475753;250;28226;-73
2021/05/17 07:04:35;;;;;;;3.73;2.00;;;10.40;99.90;;;;;;475871;249;27235;-73
2021/05/17 07:06:38;;;;;;;2.43;1.57;;;;;;;;;;475852;249;28947;-73
2021/05/17 07:13:17;;;;;;;3.50;2.17;;;10.30;99.90;;;;;;476489;249;28387;-72
2021/05/17 07:15:18;;;;;;;2.73;1.80;;;10.40;99.90;;;;;;475543;250;28173;-73
2021/05/17 07:17:21;;;;;;;2.63;1.73;;;;;;;;;;475555;250;28169;-73
2021/05/17 07:19:22;;;;;;;2.00;1.67;;;10.50;99.90;;;;;;475585;250;27619;-73
2021/05/17 07:23:41;;;;;;;1.63;1.53;;;10.40;99.90;;;;;;475535;250;28254;-74
2021/05/17 07:25:41;;;;;;;2.07;1.87;;;10.40;99.90;;;;;;475408;250;28275;-73
2021/05/17 07:27:42;;;;;;;1.83;1.70;;;10.50;99.90;;;;;;475513;250;28339;-73
2021/05/17 07:29:43;;;;;;;1.97;1.60;;;10.50;99.90;;;;;;475554;250;28160;-73
2021/05/17 07:31:45;;;;;;;2.10;1.60;;;10.40;99.90;;;;;;475550;246;28308;-74
2021/05/17 07:33:46;;;;;;;1.93;1.67;;;10.30;99.90;;;;;;475569;250;28282;-73
2021/05/17 07:35:47;;;;;;;2.47;1.80;;;10.30;99.90;;;;;;475572;250;28241;-73
2021/05/17 07:37:48;;;;;;;2.13;1.50;;;10.30;99.90;;;;;;475557;250;28236;-73
2021/05/17 07:39:50;;;;;;;1.80;1.70;;;10.10;99.90;;;;;;475548;250;28470;-72
2021/05/17 07:41:51;;;;;;;1.43;1.33;;;10.20;99.90;;;;;;475566;250;28592;-74
2021/05/17 07:43:52;;;;;;;2.10;1.60;;;10.30;99.90;;;;;;475578;250;28584;-73
2021/05/17 07:45:53;;;;;;;1.30;1.20;;;10.40;99.90;;;;;;475568;250;28627;-73
2021/05/17 07:47:55;;;;;;;2.13;1.30;;;10.40;99.90;;;;;;475559;250;28151;-73
2021/05/17 07:49:56;;;;;;;4.10;1.77;;;10.50;99.90;;;;;;475533;250;28158;-73
2021/05/17 07:51:57;;;;;;;2.33;1.60;;;10.60;99.90;;;;;;475553;250;28034;-73
2021/05/17 07:53:59;;;;;;;2.23;1.70;;;10.60;99.90;;;;;;475550;250;28247;-73
2021/05/17 07:56:00;;;;;;;2.93;1.40;;;10.70;99.90;;;;;;474669;250;28150;-73
2021/05/17 07:58:01;;;;;;;4.40;1.63;;;10.80;99.90;;;;;;475541;250;27865;-72
2021/05/17 08:00:02;;;;;;;4.20;1.73;;;11.00;99.90;;;;;;475530;250;28225;-74
2021/05/17 08:02:03;;;;;;;1.80;1.67;;;10.90;99.90;;;;;;475500;250;28280;-73
2021/05/17 08:04:05;;;;;;;4.33;2.10;;;10.80;99.90;;;;;;475538;250;28811;-73
2021/05/17 08:06:07;;;;;;;4.63;1.90;;;;;;;;;;475533;250;28600;-73
2021/05/17 08:08:09;;;;;;;1.93;1.70;;;11.20;99.90;;;;;;475499;247;26866;-73
2021/05/17 08:10:11;;;;;;;2.70;2.00;;;11.30;99.90;;;;;;475497;250;28505;-74
2021/05/17 08:12:11;;;;;;;1.50;1.40;;;11.20;99.90;;;;;;475468;250;28392;-73
2021/05/17 08:14:12;;;;;;;1.73;1.60;;;11.10;99.90;;;;;;475551;250;28665;-74
2021/05/17 08:16:17;;;;;;;2.70;1.47;;;11.10;99.90;;;;;;475579;250;28314;-73
2021/05/17 08:18:14;;;;;;;3.77;1.73;;;11.10;99.90;;;;;;475104;250;28762;-74
2021/05/17 08:20:16;;;;;;;2.67;1.60;;;11.30;99.90;;;;;;475532;249;29111;-73
2021/05/17 08:22:17;;;;;;;5.23;2.30;;;11.30;99.90;;;;;;477205;245;28886;-73
2021/05/17 08:24:18;;;;;;;4.97;2.70;;;11.50;99.90;;;;;;472427;245;28128;-74
2021/05/17 08:26:20;;;;;;;4.13;2.37;;;11.60;99.90;;;;;;467297;253;28393;-73
2021/05/17 08:28:21;;;;;;;2.80;2.23;;;11.60;99.90;;;;;;467418;253;28146;-73
2021/05/17 08:30:24;;;;;;;3.50;1.90;;;11.60;99.90;;;;;;467361;253;28293;-72
2021/05/17 08:32:23;;;;;;;11.17;4.90;;;11.70;99.90;;;;;;467272;254;28361;-72
2021/05/17 08:34:25;;;;;;;4.13;2.10;;;11.90;99.90;;;;;;467381;253;28540;-72
2021/05/17 08:36:26;;;;;;;3.50;1.80;;;12.00;99.90;;;;;;467365;253;29532;-72
2021/05/17 08:38:27;;;;;;;2.50;1.70;;;12.10;99.90;;;;;;467357;253;28299;-73
2021/05/17 08:40:28;;;;;;;3.00;1.63;;;12.00;99.90;;;;;;467377;253;28965;-72
2021/05/17 08:42:30;;;;;;;2.50;1.70;;;12.10;99.90;;;;;;467342;254;28844;-73
2021/05/17 08:44:34;;;;;;;3.10;1.60;;;12.00;99.90;;;;;;467364;254;28836;-73
2021/05/17 08:46:32;;;;;;;3.30;1.60;;;11.80;99.90;;;;;;467187;254;28844;-73
2021/05/17 08:48:33;;;;;;;2.00;1.47;;;11.90;99.90;;;;;;467358;253;28480;-73
2021/05/17 08:50:36;;;;;;;3.20;1.90;;;12.30;99.90;;;;;;467359;253;28499;-72
2021/05/17 08:52:36;;;;;;;4.63;2.37;;;12.50;99.90;;;;;;467305;254;28316;-73
2021/05/17 08:54:37;;;;;;;2.07;1.70;;;12.60;99.90;;;;;;467394;253;28381;-73
2021/05/17 08:56:38;;;;;;;4.07;1.63;;;12.50;99.90;;;;;;467384;253;28611;-73
2021/05/17 08:58:40;;;;;;;2.43;1.60;;;12.40;99.90;;;;;;467387;253;28927;-73
2021/05/17 09:00:41;;;;;;;2.70;1.60;;;12.30;99.90;;;;;;467387;253;28629;-72
2021/05/17 09:02:42;;;;;;;1.60;1.23;;;12.30;99.90;;;;;;467352;253;28462;-73
2021/05/17 09:04:43;;;;;;;7.07;6.37;;;12.30;99.90;;;;;;467392;253;28827;-73
2021/05/17 09:06:48;;;;;;;2.80;2.23;;;12.10;99.90;;;;;;467226;253;28534;-74
2021/05/17 09:08:48;;;;;;;2.53;1.70;;;12.00;99.90;;;;;;467037;254;28331;-74
2021/05/17 09:10:49;;;;;;;4.20;1.87;;;11.80;99.90;;;;;;467229;253;28288;-73
2021/05/17 09:12:50;;;;;;;5.53;2.30;;;11.60;99.90;;;;;;467344;251;28840;-73
2021/05/17 09:14:52;;;;;;;4.63;1.60;;;11.90;99.90;;;;;;467433;253;28852;-74
2021/05/17 09:16:53;;;;;;;3.93;1.87;;;12.20;99.90;;;;;;467376;253;28829;-73
2021/05/17 09:18:54;;;;;;;4.33;1.67;;;12.20;99.90;;;;;;467348;253;28294;-73
2021/05/17 09:20:55;;;;;;;4.03;1.80;;;12.30;99.90;;;;;;467370;253;28460;-73
2021/05/17 09:22:57;;;;;;;1.83;1.50;;;12.30;99.90;;;;;;467414;253;28540;-75
2021/05/17 09:24:58;;;;;;;4.87;2.10;;;12.40;99.90;;;;;;467370;253;28570;-73
2021/05/17 09:29:00;;;;;;;4.83;1.97;;;12.70;99.90;;;;;;480382;247;28422;-74
2021/05/17 09:31:05;;;;;;;3.50;1.50;;;13.00;99.90;;;;;;481443;246;28096;-73
2021/05/17 09:33:06;;;;;;;3.77;2.20;;;13.10;99.90;;;;;;481240;247;29121;-73
2021/05/17 09:35:07;;;;;;;2.23;2.03;;;13.00;99.90;;;;;;479113;246;28580;-74
2021/05/17 09:37:08;;;;;;;3.23;1.80;;;12.90;99.90;;;;;;476006;250;28793;-73
2021/05/17 09:39:09;;;;;;;2.13;1.90;;;12.90;99.90;;;;;;475968;250;28927;-73
2021/05/17 09:41:11;;;;;;;8.73;1.80;;;12.60;99.90;;;;;;475931;250;28787;-73
2021/05/17 09:43:12;;;;;;;3.30;1.83;;;12.40;99.90;;;;;;475974;250;28857;-73
2021/05/17 09:45:13;;;;;;;3.10;1.70;;;12.30;99.90;;;;;;475984;250;28244;-73
2021/05/17 09:47:20;;;;;;;4.37;1.70;;;12.20;99.90;;;;;;475974;250;28550;-73
2021/05/17 09:49:19;;;;;;;2.40;1.60;;;12.10;99.90;;;;;;475877;250;28469;-73
2021/05/17 09:51:19;;;;;;;7.43;1.87;;;12.10;99.90;;;;;;477827;248;28189;-73
2021/05/17 09:53:21;;;;;;;7.73;2.23;;;12.30;99.90;;;;;;479556;248;28767;-74
2021/05/17 09:55:22;;;;;;;3.33;1.50;;;12.40;99.90;;;;;;479574;248;28652;-73
2021/05/17 09:57:23;;;;;;;3.87;2.00;;;12.30;99.90;;;;;;479574;248;28775;-73
2021/05/17 09:59:24;;;;;;;5.53;1.63;;;12.50;99.90;;;;;;479580;248;28194;-73
2021/05/17 10:01:27;;;;;;;1.67;1.53;;;12.80;99.90;;;;;;479587;248;28450;-73
2021/05/17 10:03:27;;;;;;;4.43;1.80;;;13.00;99.90;;;;;;479527;248;28535;-73
2021/05/17 10:05:28;;;;;;;2.90;1.43;;;12.90;99.90;;;;;;479584;248;28532;-73
2021/05/17 10:07:29;;;;;;;4.20;1.70;;;13.00;99.90;;;;;;479596;248;28277;-74
2021/05/17 10:09:31;;;;;;;3.53;1.87;;;13.00;99.90;;;;;;479567;248;28745;-73
2021/05/17 10:11:32;;;;;;;3.80;1.50;;;12.80;99.90;;;;;;479589;248;28434;-74
2021/05/17 10:13:36;;;;;;;3.87;1.63;;;12.90;99.90;;;;;;479615;248;28461;-73
2021/05/17 10:15:37;;;;;;;4.57;1.80;;;13.10;99.90;;;;;;479612;248;28821;-73
2021/05/17 10:17:39;;;;;;;2.97;1.60;;;13.10;99.90;;;;;;472869;241;28523;-73
2021/05/17 10:19:40;;;;;;;12.23;1.60;;;13.00;99.90;;;;;;459228;258;29330;-73
2021/05/17 10:21:41;;;;;;;1.90;1.63;;;13.10;99.90;;;;;;459317;258;28390;-74
2021/05/17 10:23:42;;;;;;;3.60;1.50;;;13.10;99.90;;;;;;459321;258;28851;-74
2021/05/17 10:25:43;;;;;;;3.13;1.60;;;13.00;99.90;;;;;;459307;258;28929;-74
2021/05/17 10:27:45;;;;;;;3.77;2.17;;;12.80;99.90;;;;;;464061;239;28896;-74
2021/05/17 10:29:46;;;;;;;2.40;1.50;;;12.60;99.90;;;;;;464924;254;29378;-75
2021/05/17 10:31:47;;;;;;;4.13;1.63;;;12.30;99.90;;;;;;464761;253;29173;-74
2021/05/17 10:33:48;;;;;;;4.17;1.80;;;12.10;99.90;;;;;;464998;253;29045;-74
2021/05/17 10:35:50;;;;;;;3.23;1.60;;;11.80;99.90;;;;;;465073;253;29005;-74
2021/05/17 10:37:51;;;;;;;3.30;1.47;;;12.00;99.90;;;;;;465042;253;28246;-74
2021/05/17 10:39:56;;;;;;;1.40;1.30;;;12.40;99.90;;;;;;465061;249;28346;-74
2021/05/17 10:41:54;;;;;;;5.77;1.30;;;12.60;99.90;;;;;;465133;253;28369;-74
2021/05/17 10:44:06;;;;;;;2.60;1.50;;;12.70;99.90;;;;;;465076;253;28267;-74
2021/05/17 10:46:50;;;;;;;2.93;1.40;;;12.50;99.90;;;;;;465215;250;28481;-73
2021/05/17 10:48:03;;;;;;;2.27;1.50;;;12.40;99.90;;;;;;463125;254;28331;-74
2021/05/17 10:50:04;;;;;;;5.87;1.50;;;12.10;99.90;;;;;;465017;253;28381;-74
2021/05/17 10:52:06;;;;;;;1.80;1.37;;;12.10;99.90;;;;;;465069;253;28595;-73
2021/05/17 10:54:07;;;;;;;3.20;1.50;;;12.20;99.90;;;;;;465047;253;28405;-75
2021/05/17 10:56:08;;;;;;;2.50;1.50;;;12.10;99.90;;;;;;465058;253;28334;-75